createdAt,value
2023-02-18T00:54:59.293Z,500.00
2023-02-18T01:42:59.856Z,508.00
2023-02-18T01:43:59.824Z,502.00
2023-02-18T01:44:59.816Z,506.00
2023-02-18T01:45:59.804Z,506.00
2023-02-18T01:46:59.800Z,504.00
2023-02-18T01:47:59.783Z,503.00
2023-02-18T01:48:59.774Z,509.00
2023-02-18T01:49:59.770Z,505.00
2023-02-18T01:50:59.761Z,512.00
2023-02-18T01:51:59.753Z,502.00
2023-02-18T01:52:59.739Z,502.00
2023-02-18T02:59:59.123Z,505.00
2023-02-18T05:07:57.943Z,511.00
2023-02-18T05:08:57.937Z,509.00
2023-02-18T05:09:57.920Z,512.00
2023-02-18T05:11:57.918Z,506.00
2023-02-18T05:12:57.907Z,506.00
2023-02-18T05:13:57.905Z,510.00
2023-02-18T05:14:57.876Z,517.00
2023-02-18T05:15:57.943Z,511.00
2023-02-18T05:16:58.430Z,508.00
2023-02-18T05:17:57.864Z,508.00
2023-02-18T05:18:57.841Z,513.00
2023-02-18T05:19:57.834Z,513.00
2023-02-18T05:20:57.822Z,515.00
2023-02-18T05:21:57.813Z,513.00
2023-02-18T05:22:57.800Z,509.00
2023-02-18T05:23:57.796Z,509.00
2023-02-18T05:24:57.783Z,506.00
2023-02-18T05:25:57.802Z,506.00
2023-02-18T05:26:57.967Z,510.00
2023-02-18T05:27:57.763Z,503.00
2023-02-18T05:28:57.744Z,509.00
2023-02-18T05:29:57.787Z,505.00
2023-02-18T05:30:57.800Z,510.00
2023-02-18T05:31:57.775Z,506.00
2023-02-18T05:32:57.711Z,506.00
2023-02-18T05:33:57.702Z,509.00
2023-02-18T05:34:57.697Z,502.00
2023-02-18T05:35:57.689Z,509.00
2023-02-18T05:36:57.682Z,509.00
2023-02-18T05:37:57.668Z,508.00
2023-02-18T05:38:57.659Z,514.00
2023-02-18T05:39:57.647Z,512.00
2023-02-18T05:40:57.637Z,506.00
2023-02-18T05:41:57.633Z,513.00
2023-02-18T05:42:58.470Z,506.00
2023-02-18T05:43:57.612Z,513.00
2023-02-18T05:44:57.599Z,510.00
2023-02-18T05:45:57.596Z,507.00
2023-02-18T05:46:57.583Z,509.00
2023-02-18T05:47:57.575Z,508.00
2023-02-18T05:48:57.567Z,510.00
2023-02-18T05:49:57.550Z,515.00
2023-02-18T05:51:57.537Z,515.00
2023-02-18T05:52:57.527Z,516.00
2023-02-18T05:53:57.522Z,516.00
2023-02-18T05:54:57.508Z,517.00
2023-02-18T05:55:57.502Z,513.00
2023-02-18T05:56:57.485Z,511.00
2023-02-18T05:57:58.443Z,510.00
2023-02-18T05:58:57.501Z,504.00
2023-02-18T05:59:59.849Z,515.00
2023-02-18T06:00:57.452Z,515.00
2023-02-18T06:01:57.452Z,516.00
2023-02-18T06:02:57.471Z,516.00
2023-02-18T06:03:57.428Z,513.00
2023-02-18T06:04:57.410Z,511.00
2023-02-18T06:05:57.656Z,502.00
2023-02-18T06:06:57.392Z,512.00
2023-02-18T06:07:57.391Z,512.00
2023-02-18T06:08:57.393Z,511.00
2023-02-18T06:09:57.391Z,511.00
2023-02-18T06:10:57.365Z,515.00
2023-02-18T06:11:57.356Z,515.00
2023-02-18T06:12:57.355Z,517.00
2023-02-18T06:13:57.331Z,516.00
2023-02-18T06:14:57.437Z,508.00
2023-02-18T06:15:57.352Z,512.00
2023-02-18T06:16:57.307Z,512.00
2023-02-18T06:17:57.300Z,506.00
2023-02-18T06:18:57.282Z,507.00
2023-02-18T06:19:57.280Z,515.00
2023-02-18T06:22:57.459Z,512.00
2023-02-18T07:30:57.559Z,507.00
2023-02-18T07:41:57.485Z,512.00
2023-02-18T08:39:54.977Z,513.00
2023-02-18T08:46:02.557Z,515.00
2023-02-18T11:02:57.574Z,519.00
2023-02-18T11:10:57.551Z,517.00
2023-02-18T13:36:00.114Z,519.00
2023-02-18T15:42:52.050Z,524.00
2023-02-18T15:43:52.038Z,530.00
2023-02-18T15:44:52.030Z,528.00
2023-02-18T15:45:52.019Z,520.00
2023-02-18T15:46:52.007Z,529.00
2023-02-18T15:47:52.004Z,531.00
2023-02-18T15:48:52.647Z,532.00
2023-02-18T15:49:51.995Z,532.00
2023-02-18T15:50:51.994Z,524.00
2023-02-18T15:52:51.969Z,530.00
2023-02-18T15:53:51.942Z,529.00
2023-02-18T15:54:51.936Z,528.00
2023-02-18T15:55:51.924Z,529.00
2023-02-18T15:56:51.935Z,524.00
2023-02-18T15:57:52.655Z,529.00
2023-02-18T15:58:51.904Z,530.00
2023-02-18T15:59:53.696Z,525.00
2023-02-18T16:00:51.935Z,531.00
2023-02-18T16:01:51.932Z,533.00
2023-02-18T16:02:51.865Z,529.00
2023-02-18T16:03:51.857Z,533.00
2023-02-18T16:04:51.851Z,529.00
2023-02-18T16:05:51.835Z,531.00
2023-02-18T16:06:51.960Z,526.00
2023-02-18T16:07:51.817Z,532.00
2023-02-18T16:08:51.807Z,524.00
2023-02-18T16:09:51.801Z,527.00
2023-02-18T16:10:51.789Z,533.00
2023-02-18T16:11:51.790Z,531.00
2023-02-18T16:12:51.773Z,529.00
2023-02-18T16:13:51.771Z,528.00
2023-02-18T16:14:51.762Z,526.00
2023-02-18T16:15:51.747Z,530.00
2023-02-18T16:16:51.733Z,528.00
2023-02-18T16:17:51.728Z,527.00
2023-02-18T16:18:52.660Z,523.00
2023-02-18T16:20:03.350Z,530.00
2023-02-18T16:20:51.706Z,530.00
2023-02-18T16:21:51.688Z,532.00
2023-02-18T16:22:51.724Z,532.00
2023-02-18T16:23:51.674Z,533.00
2023-02-18T16:24:51.664Z,530.00
2023-02-18T16:25:51.655Z,530.00
2023-02-18T16:26:51.643Z,526.00
2023-02-18T16:27:51.641Z,532.00
2023-02-18T16:28:51.632Z,533.00
2023-02-18T16:29:51.618Z,530.00
2023-02-18T16:30:51.617Z,534.00
2023-02-18T16:31:51.780Z,529.00
2023-02-18T16:32:51.589Z,524.00
2023-02-18T16:33:51.576Z,522.00
2023-02-18T16:34:51.571Z,533.00
2023-02-18T16:35:51.564Z,530.00
2023-02-18T16:36:51.596Z,529.00
2023-02-18T16:37:51.543Z,529.00
2023-02-18T16:38:51.565Z,529.00
2023-02-18T16:39:51.520Z,532.00
2023-02-18T16:40:51.516Z,525.00
2023-02-18T16:41:51.519Z,528.00
2023-02-18T16:42:51.540Z,529.00
2023-02-18T16:43:51.486Z,528.00
2023-02-18T16:44:51.473Z,528.00
2023-02-18T16:45:51.571Z,527.00
2023-02-18T16:46:51.461Z,528.00
2023-02-18T16:47:51.451Z,525.00
2023-02-18T16:48:51.443Z,528.00
2023-02-18T16:49:51.439Z,532.00
2023-02-18T16:50:51.423Z,526.00
2023-02-18T16:51:51.419Z,525.00
2023-02-18T16:52:51.404Z,530.00
2023-02-18T16:53:51.424Z,528.00
2023-02-18T16:54:51.407Z,530.00
2023-02-18T16:55:51.376Z,528.00
2023-02-18T16:56:51.366Z,521.00
2023-02-18T16:57:51.362Z,529.00
2023-02-18T16:58:52.203Z,528.00
2023-02-18T16:59:51.336Z,532.00
2023-02-18T17:00:51.352Z,526.00
2023-02-18T17:01:51.320Z,529.00
2023-02-18T17:02:51.314Z,531.00
2023-02-18T17:03:51.418Z,530.00
2023-02-18T17:04:51.298Z,535.00
2023-02-18T17:05:51.336Z,531.00
2023-02-18T17:06:51.270Z,531.00
2023-02-18T17:07:51.273Z,533.00
2023-02-18T17:08:51.258Z,528.00
2023-02-18T17:09:52.180Z,532.00
2023-02-18T17:10:51.261Z,525.00
2023-02-18T17:11:51.236Z,532.00
2023-02-18T17:12:51.223Z,529.00
2023-02-18T17:13:51.206Z,530.00
2023-02-18T17:14:51.202Z,530.00
2023-02-18T17:15:51.198Z,529.00
2023-02-18T17:16:51.221Z,528.00
2023-02-18T17:17:51.171Z,525.00
2023-02-18T17:18:51.171Z,527.00
2023-02-18T17:19:51.154Z,525.00
2023-02-18T17:20:51.151Z,525.00
2023-02-18T17:21:51.137Z,523.00
2023-02-18T17:22:51.127Z,529.00
2023-02-18T17:23:51.694Z,527.00
2023-02-18T17:24:51.108Z,522.00
2023-02-18T17:25:51.124Z,526.00
2023-02-18T17:26:51.133Z,528.00
2023-02-18T17:27:51.091Z,529.00
2023-02-18T17:28:51.076Z,524.00
2023-02-18T17:29:51.063Z,525.00
2023-02-18T17:30:51.053Z,527.00
2023-02-18T17:31:51.094Z,525.00
2023-02-18T17:32:51.034Z,525.00
2023-02-18T17:33:51.029Z,526.00
2023-02-18T17:34:51.024Z,525.00
2023-02-18T17:35:51.012Z,522.00
2023-02-18T17:36:51.003Z,524.00
2023-02-18T17:37:50.993Z,526.00
2023-02-18T17:38:50.980Z,526.00
2023-02-18T17:39:50.977Z,522.00
2023-02-18T17:40:50.988Z,527.00
2023-02-18T17:41:50.954Z,523.00
2023-02-18T17:42:50.972Z,524.00
2023-02-18T17:43:50.937Z,527.00
2023-02-18T17:44:51.206Z,523.00
2023-02-18T17:45:50.956Z,529.00
2023-02-18T17:46:50.945Z,528.00
2023-02-18T17:47:50.904Z,525.00
2023-02-18T17:48:50.899Z,521.00
2023-02-18T17:49:50.882Z,519.00
2023-02-18T17:50:50.876Z,529.00
2023-02-18T17:51:50.881Z,518.00
2023-02-18T17:52:50.855Z,525.00
2023-02-18T17:53:50.863Z,528.00
2023-02-18T17:54:50.841Z,526.00
2023-02-18T17:55:50.856Z,523.00
2023-02-18T17:56:50.818Z,530.00
2023-02-18T17:57:50.809Z,528.00
2023-02-18T17:58:50.920Z,527.00
2023-02-18T17:59:50.801Z,526.00
2023-02-18T18:00:50.973Z,530.00
2023-02-18T18:01:50.764Z,522.00
2023-02-18T18:02:50.770Z,525.00
2023-02-18T18:03:50.747Z,529.00
2023-02-18T18:04:50.746Z,528.00
2023-02-18T18:05:50.733Z,525.00
2023-02-18T18:06:50.726Z,521.00
2023-02-18T18:07:50.735Z,521.00
2023-02-18T18:08:50.702Z,522.00
2023-02-18T18:09:50.696Z,526.00
2023-02-18T18:10:50.685Z,525.00
2023-02-18T18:11:50.670Z,527.00
2023-02-18T18:12:50.680Z,524.00
2023-02-18T18:13:50.665Z,530.00
2023-02-18T18:14:50.676Z,522.00
2023-02-18T18:15:51.217Z,521.00
2023-02-18T18:16:50.730Z,526.00
2023-02-18T18:17:50.623Z,522.00
2023-02-18T18:18:50.608Z,522.00
2023-02-18T18:19:50.597Z,527.00
2023-02-18T18:20:50.595Z,526.00
2023-02-18T18:21:51.226Z,526.00
2023-02-18T18:22:50.573Z,525.00
2023-02-18T18:23:50.561Z,525.00
2023-02-18T18:24:50.549Z,526.00
2023-02-18T18:25:50.572Z,524.00
2023-02-18T18:26:50.538Z,522.00
2023-02-18T18:27:50.528Z,527.00
2023-02-18T18:28:50.515Z,527.00
2023-02-18T18:29:50.509Z,524.00
2023-02-18T18:30:50.540Z,527.00
2023-02-18T18:31:50.551Z,526.00
2023-02-18T18:32:50.497Z,519.00
2023-02-18T18:33:50.518Z,526.00
2023-02-18T18:34:50.464Z,527.00
2023-02-18T18:35:50.465Z,525.00
2023-02-18T18:36:50.448Z,525.00
2023-02-18T18:37:50.437Z,530.00
2023-02-18T18:38:51.218Z,528.00
2023-02-18T18:39:50.416Z,525.00
2023-02-18T18:40:50.421Z,524.00
2023-02-18T18:41:50.404Z,523.00
2023-02-18T18:42:50.392Z,523.00
2023-02-18T18:43:50.398Z,517.00
2023-02-18T18:44:50.372Z,524.00
2023-02-18T18:45:50.440Z,523.00
2023-02-18T18:46:50.374Z,527.00
2023-02-18T18:47:50.347Z,525.00
2023-02-18T18:48:50.348Z,519.00
2023-02-18T18:49:50.344Z,523.00
2023-02-18T18:50:50.321Z,518.00
2023-02-18T18:51:50.315Z,522.00
2023-02-18T18:52:50.295Z,524.00
2023-02-18T18:53:50.283Z,521.00
2023-02-18T18:54:50.283Z,523.00
2023-02-18T18:55:50.271Z,524.00
2023-02-18T18:56:50.304Z,526.00
2023-02-18T18:57:50.254Z,524.00
2023-02-18T18:58:50.254Z,523.00
2023-02-18T18:59:50.265Z,519.00
2023-02-18T19:00:50.226Z,525.00
2023-02-18T19:01:50.309Z,524.00
2023-02-18T19:02:50.236Z,525.00
2023-02-18T19:03:50.195Z,517.00
2023-02-18T19:04:50.184Z,522.00
2023-02-18T19:05:50.196Z,524.00
2023-02-18T19:06:50.164Z,527.00
2023-02-18T19:07:50.155Z,530.00
2023-02-18T19:08:50.149Z,519.00
2023-02-18T19:09:50.132Z,526.00
2023-02-18T19:10:50.143Z,521.00
2023-02-18T19:11:50.115Z,526.00
2023-02-18T19:12:50.107Z,528.00
2023-02-18T19:13:50.105Z,521.00
2023-02-18T19:14:50.083Z,524.00
2023-02-18T19:15:50.128Z,522.00
2023-02-18T19:16:50.081Z,523.00
2023-02-18T19:17:50.058Z,520.00
2023-02-18T19:18:50.082Z,522.00
2023-02-18T19:19:50.042Z,523.00
2023-02-18T19:20:50.050Z,525.00
2023-02-18T19:21:50.026Z,519.00
2023-02-18T19:22:50.035Z,524.00
2023-02-18T19:23:50.008Z,515.00
2023-02-18T19:24:49.991Z,522.00
2023-02-18T19:25:49.984Z,520.00
2023-02-18T19:26:49.974Z,519.00
2023-02-18T19:27:49.979Z,523.00
2023-02-18T19:28:49.963Z,519.00
2023-02-18T19:29:49.976Z,524.00
2023-02-18T19:30:50.008Z,524.00
2023-02-18T19:31:50.820Z,523.00
2023-02-18T19:32:49.926Z,519.00
2023-02-18T19:33:49.908Z,521.00
2023-02-18T19:34:49.922Z,517.00
2023-02-18T19:35:49.893Z,523.00
2023-02-18T19:36:49.879Z,521.00
2023-02-18T19:37:49.872Z,521.00
2023-02-18T19:38:49.872Z,524.00
2023-02-18T19:39:49.860Z,522.00
2023-02-18T19:40:49.858Z,522.00
2023-02-18T19:41:49.852Z,520.00
2023-02-18T19:42:49.844Z,524.00
2023-02-18T19:43:49.838Z,515.00
2023-02-18T19:44:49.837Z,518.00
2023-02-18T19:45:49.796Z,519.00
2023-02-18T19:46:49.797Z,519.00
2023-02-18T19:47:49.781Z,518.00
2023-02-18T19:48:49.771Z,520.00
2023-02-18T19:49:49.773Z,517.00
2023-02-18T19:50:49.816Z,521.00
2023-02-18T19:51:49.747Z,520.00
2023-02-18T19:52:49.736Z,518.00
2023-02-18T19:53:49.762Z,518.00
2023-02-18T19:54:49.729Z,516.00
2023-02-18T19:55:49.739Z,520.00
2023-02-18T19:56:49.719Z,516.00
2023-02-18T19:57:49.688Z,524.00
2023-02-18T19:58:49.674Z,518.00
2023-02-18T19:59:49.716Z,521.00
2023-02-18T20:00:49.669Z,516.00
2023-02-18T20:01:49.727Z,520.00
2023-02-18T20:02:49.736Z,516.00
2023-02-18T20:03:49.674Z,519.00
2023-02-18T20:04:49.650Z,522.00
2023-02-18T20:05:50.276Z,521.00
2023-02-18T20:06:49.652Z,512.00
2023-02-18T20:07:49.595Z,518.00
2023-02-18T20:08:49.591Z,522.00
2023-02-18T20:09:49.579Z,519.00
2023-02-18T20:10:49.567Z,517.00
2023-02-18T20:11:49.568Z,512.00
2023-02-18T20:12:49.549Z,516.00
2023-02-18T20:13:49.535Z,523.00
2023-02-18T20:14:49.526Z,518.00
2023-02-18T20:15:49.589Z,521.00
2023-02-18T20:16:49.520Z,517.00
2023-02-18T20:17:49.504Z,517.00
2023-02-18T20:18:49.498Z,517.00
2023-02-18T20:19:49.490Z,515.00
2023-02-18T20:20:49.479Z,515.00
2023-02-18T20:21:49.461Z,521.00
2023-02-18T20:22:49.480Z,514.00
2023-02-18T20:23:49.446Z,522.00
2023-02-18T20:24:49.438Z,519.00
2023-02-18T20:25:49.426Z,517.00
2023-02-18T20:26:49.425Z,514.00
2023-02-18T20:28:00.240Z,518.00
2023-02-18T20:28:49.401Z,519.00
2023-02-18T20:29:49.398Z,519.00
2023-02-18T20:30:49.492Z,521.00
2023-02-18T20:31:49.481Z,524.00
2023-02-18T20:32:49.368Z,519.00
2023-02-18T20:33:49.361Z,521.00
2023-02-18T20:34:49.349Z,518.00
2023-02-18T20:35:49.340Z,510.00
2023-02-18T20:36:49.325Z,518.00
2023-02-18T20:37:49.329Z,519.00
2023-02-18T20:38:49.339Z,521.00
2023-02-18T20:39:49.302Z,519.00
2023-02-18T20:40:49.288Z,513.00
2023-02-18T20:41:50.264Z,520.00
2023-02-18T20:42:49.276Z,524.00
2023-02-18T20:43:49.260Z,513.00
2023-02-18T20:44:49.294Z,513.00
2023-02-18T20:45:49.250Z,514.00
2023-02-18T20:46:49.236Z,513.00
2023-02-18T20:47:49.233Z,517.00
2023-02-18T20:48:49.227Z,508.00
2023-02-18T20:49:49.208Z,518.00
2023-02-18T20:50:49.197Z,518.00
2023-02-18T20:51:49.219Z,513.00
2023-02-18T20:52:49.192Z,512.00
2023-02-18T20:53:49.167Z,514.00
2023-02-18T20:55:49.158Z,519.00
2023-02-18T20:56:49.140Z,518.00
2023-02-18T20:57:49.134Z,510.00
2023-02-18T22:19:48.379Z,512.00
2023-02-18T22:38:48.202Z,514.00
2023-02-18T22:39:48.184Z,508.00
2023-02-18T22:41:48.165Z,504.00
2023-02-18T22:44:48.137Z,512.00
2023-02-18T22:46:48.140Z,509.00
2023-02-18T22:47:48.108Z,510.00
2023-02-18T22:48:48.098Z,504.00
2023-02-18T22:49:48.088Z,505.00
2023-02-18T22:50:48.084Z,506.00
2023-02-18T22:51:48.080Z,512.00
2023-02-18T22:52:48.064Z,510.00
2023-02-18T22:53:48.052Z,508.00
2023-02-18T22:54:48.050Z,516.00
2023-02-18T22:55:48.032Z,510.00
2023-02-18T22:56:48.067Z,512.00
2023-02-18T22:57:48.013Z,508.00
2023-02-18T22:58:48.009Z,512.00
2023-02-18T22:59:48.008Z,509.00
2023-02-18T23:01:47.974Z,504.00
2023-02-18T23:02:47.993Z,508.00
2023-02-18T23:03:48.026Z,511.00
2023-02-18T23:04:47.950Z,510.00
2023-02-18T23:05:47.939Z,510.00
2023-02-18T23:06:48.017Z,515.00
2023-02-18T23:07:47.930Z,513.00
2023-02-18T23:08:47.910Z,506.00
2023-02-18T23:09:47.932Z,516.00
2023-02-18T23:10:47.892Z,509.00
2023-02-18T23:11:47.883Z,512.00
2023-02-18T23:12:47.875Z,500.00
2023-02-18T23:13:47.875Z,506.00
2023-02-18T23:14:47.868Z,510.00
2023-02-18T23:15:47.851Z,510.00
2023-02-18T23:16:47.909Z,508.00
2023-02-18T23:17:47.828Z,511.00
2023-02-18T23:18:47.843Z,514.00
2023-02-18T23:19:47.823Z,511.00
2023-02-18T23:20:47.802Z,512.00
2023-02-18T23:21:47.796Z,509.00
2023-02-18T23:22:47.789Z,510.00
2023-02-18T23:23:47.776Z,505.00
2023-02-18T23:25:47.751Z,512.00
2023-02-18T23:26:47.742Z,510.00
2023-02-18T23:27:47.738Z,508.00
2023-02-18T23:28:47.807Z,509.00
2023-02-18T23:29:47.728Z,513.00
2023-02-18T23:31:47.825Z,513.00
2023-02-18T23:32:47.687Z,507.00
2023-02-18T23:33:47.680Z,514.00
2023-02-18T23:34:47.696Z,514.00
2023-02-18T23:35:47.670Z,515.00
2023-02-18T23:36:47.654Z,518.00
2023-02-18T23:37:47.645Z,508.00
2023-02-18T23:38:47.632Z,510.00
2023-02-18T23:39:47.629Z,513.00
2023-02-18T23:40:47.618Z,509.00
2023-02-18T23:41:47.605Z,507.00
2023-02-18T23:42:47.601Z,513.00
2023-02-18T23:43:47.594Z,513.00
2023-02-18T23:44:47.582Z,511.00
2023-02-18T23:45:47.592Z,511.00
2023-02-18T23:46:47.569Z,507.00
2023-02-18T23:47:47.583Z,512.00
2023-02-18T23:48:47.541Z,510.00
2023-02-18T23:49:47.539Z,509.00
2023-02-18T23:50:47.549Z,506.00
2023-02-18T23:51:47.529Z,511.00
2023-02-18T23:52:47.501Z,506.00
2023-02-18T23:53:47.497Z,511.00
2023-02-18T23:54:47.487Z,512.00
2023-02-18T23:55:47.477Z,510.00
2023-02-18T23:56:47.476Z,511.00
2023-02-18T23:57:47.464Z,510.00
2023-02-18T23:58:47.472Z,505.00
2023-02-18T23:59:47.441Z,504.00
